Time;durP1;ratioP1;P1;durP2;ratioP2;P2;SDS_P1;SDS_P2;PMS_P1;PMS_P2;Temp;Humidity;BMP_temperature;BMP_pressure;BME280_temperature;BME280_humidity;BME280_pressure;Samples;Min_cycle;Max_cycle;Signal;HPM_P1;HPM_P2
2021/11/14 00:01:21;;;;;;;28.23;12.13;;;;;;;10.75;100.00;101612.25;6222950;22;20091;-92
2021/11/14 00:03:48;;;;;;;28.17;12.70;;;;;;;10.78;100.00;101611.09;6248423;22;20004;-91
2021/11/14 00:06:15;;;;;;;29.05;12.07;;;;;;;10.80;100.00;101609.09;6248513;22;20012;-90
2021/11/14 00:08:41;;;;;;;24.17;11.88;;;;;;;10.79;100.00;101594.78;6222878;22;20004;-92
2021/11/14 00:11:13;;;;;;;25.98;11.32;;;;;;;10.84;100.00;101605.09;6248445;22;20000;-91
2021/11/14 00:13:41;;;;;;;25.25;12.43;;;;;;;10.89;100.00;101605.47;6222917;22;20004;-90
2021/11/14 00:16:10;;;;;;;26.38;11.95;;;;;;;10.90;100.00;101604.47;6198207;22;20007;-90
2021/11/14 00:18:38;;;;;;;28.42;12.07;;;;;;;10.94;100.00;101600.47;6223205;22;20008;-89
2021/11/14 00:21:04;;;;;;;26.67;10.85;;;;;;;10.93;100.00;101600.63;6222847;22;20095;-89
2021/11/14 00:23:30;;;;;;;27.90;11.77;;;;;;;10.90;100.00;101596.41;6223140;22;20097;-94
2021/11/14 00:25:56;;;;;;;25.42;10.50;;;;;;;11.00;100.00;101605.19;6222539;22;20003;-92
2021/11/14 00:28:22;;;;;;;22.02;10.57;;;;;;;10.90;100.00;101588.34;6198112;22;20309;-91
2021/11/14 00:30:52;;;;;;;22.85;10.57;;;;;;;10.91;100.00;101587.31;6197074;22;20015;-94
2021/11/14 00:33:18;;;;;;;23.40;11.75;;;;;;;11.01;100.00;101606.06;6223030;22;19999;-90
2021/11/14 00:35:44;;;;;;;24.45;11.57;;;;;;;11.02;100.00;101601.53;6198621;22;20014;-90
2021/11/14 00:38:12;;;;;;;25.52;11.63;;;;;;;11.05;100.00;101609.28;6222832;22;20361;-90
2021/11/14 00:40:39;;;;;;;26.02;11.85;;;;;;;11.00;100.00;101598.97;6223782;22;20000;-89
2021/11/14 00:43:06;;;;;;;22.65;10.65;;;;;;;10.93;100.00;101581.78;6224247;22;20012;-90
2021/11/14 00:45:33;;;;;;;25.23;11.10;;;;;;;11.03;100.00;101601.34;6200375;22;20014;-89
2021/11/14 00:48:03;;;;;;;26.88;11.82;;;;;;;11.08;100.00;101614.34;6224979;22;20007;-92
2021/11/14 00:50:29;;;;;;;24.70;12.00;;;;;;;10.99;100.00;101587.38;6199876;22;20090;-92
2021/11/14 00:52:58;;;;;;;26.75;12.05;;;;;;;11.06;100.00;101605.56;6224724;22;20046;-93
2021/11/14 00:55:24;;;;;;;21.92;11.25;;;;;;;11.07;100.00;101605.44;6224571;22;20049;-90
2021/11/14 00:57:51;;;;;;;21.88;11.38;;;;;;;11.04;100.00;101599.53;6225231;22;20467;-93
2021/11/14 01:00:20;;;;;;;22.27;10.48;;;;;;;11.13;100.00;101610.16;6225106;22;20031;-90
2021/11/14 01:02:50;;;;;;;26.73;13.10;;;;;;;11.06;100.00;101605.56;6224558;22;20004;-90
2021/11/14 01:05:18;;;;;;;23.63;12.43;;;;;;;11.06;100.00;101602.88;6224545;22;20031;-91
2021/11/14 01:07:46;;;;;;;22.40;12.13;;;;;;;11.04;100.00;101604.91;6224495;22;20008;-90
2021/11/14 01:10:14;;;;;;;32.17;14.70;;;;;;;11.09;100.00;101621.44;6224305;22;20004;-91
2021/11/14 01:12:45;;;;;;;25.05;12.93;;;;;;;10.99;100.00;101608.91;6223804;22;20095;-90
2021/11/14 01:15:12;;;;;;;31.25;13.82;;;;;;;11.04;100.00;101618.38;6224633;22;20035;-90
2021/11/14 01:17:52;;;;;;;21.33;11.45;;;;;;;10.99;100.00;101614.28;6200149;22;20436;-91
2021/11/14 01:20:23;;;;;;;25.75;11.05;;;;;;;10.86;100.00;101595.03;6224336;22;20057;-90
2021/11/14 01:22:50;;;;;;;27.02;12.65;;;;;;;10.87;100.00;101599.38;6249962;22;20019;-89
2021/11/14 01:25:18;;;;;;;27.52;14.57;;;;;;;10.96;100.00;101614.59;6199648;22;20015;-90
2021/11/14 01:27:46;;;;;;;25.23;12.95;;;;;;;10.91;100.00;101599.94;6199522;22;20010;-93
2021/11/14 01:30:15;;;;;;;26.08;13.00;;;;;;;10.84;100.00;101596.19;6223526;22;20006;-90
2021/11/14 01:32:43;;;;;;;26.05;13.25;;;;;;;10.88;100.00;101597.56;6224581;22;20022;-91
2021/11/14 01:35:10;;;;;;;23.42;11.93;;;;;;;10.90;100.00;101599.09;6224413;22;20027;-91
2021/11/14 01:37:38;;;;;;;27.20;13.30;;;;;;;10.79;100.00;101581.34;6199744;22;20420;-94
2021/11/14 01:40:12;;;;;;;26.88;11.70;;;;;;;10.83;100.00;101579.19;6224734;22;20087;-90
2021/11/14 01:42:38;;;;;;;24.55;12.23;;;;;;;10.78;100.00;101571.59;6224194;22;20003;-89
2021/11/14 01:45:08;;;;;;;26.00;12.90;;;;;;;10.84;100.00;101586.25;6224150;22;20003;-91
2021/11/14 01:47:34;;;;;;;25.95;12.00;;;;;;;10.73;100.00;101575.75;6223828;22;20053;-91
2021/11/14 01:50:09;;;;;;;25.83;13.43;;;;;;;10.74;100.00;101588.19;6199514;22;20012;-91
2021/11/14 01:52:35;;;;;;;22.90;11.27;;;;;;;10.66;100.00;101585.44;6224179;22;20019;-92
2021/11/14 01:55:03;;;;;;;24.05;12.00;;;;;;;10.69;100.00;101596.75;6223812;22;20016;-93
2021/11/14 01:57:37;;;;;;;21.48;10.30;;;;;;;10.76;100.00;101621.16;6199581;22;20008;-91
2021/11/14 02:00:07;;;;;;;26.52;11.63;;;;;;;10.70;100.00;101619.94;6199307;22;20098;-90
2021/11/14 02:02:50;;;;;;;22.40;10.75;;;;;;;10.74;100.00;101628.53;6223756;22;20011;-89
2021/11/14 02:05:17;;;;;;;22.88;10.75;;;;;;;10.68;100.00;101621.09;6199747;22;20007;-92
2021/11/14 02:07:42;;;;;;;24.88;11.60;;;;;;;10.73;100.00;101622.31;6223979;22;20007;-90
2021/11/14 02:10:16;;;;;;;23.52;10.88;;;;;;;10.76;100.00;101629.25;6223481;22;20087;-92
2021/11/14 02:12:42;;;;;;;20.73;10.85;;;;;;;10.80;100.00;101633.31;6223983;22;20004;-93
2021/11/14 02:15:15;;;;;;;20.08;10.05;;;;;;;10.76;100.00;101629.25;6224599;22;20552;-91
2021/11/14 02:17:41;;;;;;;25.27;11.25;;;;;;;10.73;100.00;101614.25;6223516;22;20008;-93
2021/11/14 02:20:08;;;;;;;22.02;11.30;;;;;;;10.80;100.00;101619.88;6222849;22;20015;-91
2021/11/14 02:22:34;;;;;;;22.23;10.55;;;;;;;10.90;100.00;101634.09;6222850;22;20014;-89
2021/11/14 02:25:00;;;;;;;22.30;11.32;;;;;;;10.79;100.00;101610.94;6197658;22;20090;-91
2021/11/14 02:27:26;;;;;;;22.98;10.75;;;;;;;10.85;100.00;101614.88;6223532;22;20011;-90
2021/11/14 02:29:52;;;;;;;21.52;11.02;;;;;;;10.83;100.00;101613.34;6199159;22;20313;-89
2021/11/14 02:32:18;;;;;;;20.58;10.18;;;;;;;10.91;100.00;101638.44;6223448;22;20008;-93
2021/11/14 02:34:47;;;;;;;22.27;11.27;;;;;;;10.90;100.00;101638.59;6223484;22;20090;-91
2021/11/14 02:37:15;;;;;;;20.70;10.40;;;;;;;10.85;100.00;101625.63;6224366;22;20012;-89
2021/11/14 02:39:41;;;;;;;20.95;10.95;;;;;;;10.85;100.00;101631.00;6223323;22;20027;-89
2021/11/14 02:42:07;;;;;;;22.55;10.52;;;;;;;10.91;100.00;101625.00;6199025;22;20011;-92
2021/11/14 02:44:47;;;;;;;19.63;10.05;;;;;;;10.85;100.00;101619.38;6223757;22;20003;-90
2021/11/14 02:47:13;;;;;;;22.60;10.63;;;;;;;10.91;100.00;101625.00;6223476;22;20097;-90
2021/11/14 02:49:39;;;;;;;19.52;10.85;;;;;;;10.93;100.00;101624.84;6223802;22;20030;-91
2021/11/14 02:52:07;;;;;;;18.63;8.98;;;;;;;10.89;100.00;101624.28;6223550;22;20039;-89
2021/11/14 02:54:32;;;;;;;17.52;8.55;;;;;;;10.94;100.00;101618.47;6199096;22;20011;-90
2021/11/14 02:56:59;;;;;;;19.60;9.25;;;;;;;10.94;100.00;101610.38;6223638;22;20015;-90
2021/11/14 02:59:25;;;;;;;18.38;8.15;;;;;;;10.94;100.00;101613.06;6199139;22;20011;-89
2021/11/14 03:01:54;;;;;;;16.85;8.63;;;;;;;10.96;100.00;101613.75;6223560;22;20004;-94
2021/11/14 03:04:24;;;;;;;19.23;8.20;;;;;;;10.90;100.00;101615.25;6223668;22;20011;-93
2021/11/14 03:06:52;;;;;;;20.77;9.35;;;;;;;11.04;100.00;101637.19;6223044;22;20015;-89
2021/11/14 03:09:19;;;;;;;18.88;8.05;;;;;;;11.05;100.00;101633.50;6199045;22;20090;-90
2021/11/14 03:11:45;;;;;;;17.90;7.90;;;;;;;11.02;100.00;101623.06;6198748;22;20003;-91
2021/11/14 03:14:29;;;;;;;17.60;7.88;;;;;;;11.07;100.00;101626.13;6252486;22;20014;-90
2021/11/14 03:17:10;;;;;;;16.20;7.53;;;;;;;10.97;100.00;101610.06;6223038;22;20335;-92
2021/11/14 03:19:36;;;;;;;16.13;7.03;;;;;;;10.91;100.00;101606.16;6223382;22;20000;-91
2021/11/14 03:22:05;;;;;;;15.35;7.68;;;;;;;10.98;100.00;101619.81;6223414;22;20011;-91
2021/11/14 03:24:31;;;;;;;19.27;8.70;;;;;;;10.97;100.00;101632.44;6223527;22;20010;-94
2021/11/14 03:26:56;;;;;;;15.63;7.05;;;;;;;10.87;100.00;101603.94;6223587;22;20011;-90
2021/11/14 03:29:30;;;;;;;17.20;7.15;;;;;;;10.99;100.00;101619.66;6198229;22;20015;-91
2021/11/14 03:31:56;;;;;;;13.70;5.80;;;;;;;10.94;100.00;101613.91;6223577;22;20007;-93
2021/11/14 03:34:24;;;;;;;23.10;9.60;;;;;;;10.95;100.00;101615.59;6223265;22;20031;-91
2021/11/14 03:36:51;;;;;;;21.13;9.23;;;;;;;10.99;100.00;101618.84;6222556;22;20083;-92
2021/11/14 03:39:19;;;;;;;42.67;14.85;;;;;;;10.92;100.00;101604.31;6198616;22;20004;-90
2021/11/14 03:41:46;;;;;;;71.45;23.05;;;;;;;10.96;100.00;101606.53;6223234;22;20103;-91
2021/11/14 03:44:12;;;;;;;21.70;9.68;;;;;;;10.98;100.00;101603.66;6222930;22;20014;-93
2021/11/14 03:46:56;;;;;;;13.70;7.47;;;;;;;11.02;100.00;101613.13;6198285;22;20043;-92
2021/11/14 03:49:22;;;;;;;14.95;7.18;;;;;;;10.99;100.00;101616.97;6198166;22;20014;-91
2021/11/14 03:51:51;;;;;;;17.73;7.90;;;;;;;11.04;100.00;101618.38;6223110;22;20007;-94
2021/11/14 03:54:17;;;;;;;19.20;8.52;;;;;;;11.04;100.00;101623.75;6223243;22;20007;-91
2021/11/14 03:56:43;;;;;;;15.13;7.35;;;;;;;10.98;100.00;101617.13;6222756;22;20057;-91
2021/11/14 03:59:16;;;;;;;18.13;8.15;;;;;;;11.07;100.00;101621.56;6223039;22;20492;-91
2021/11/14 04:01:41;;;;;;;15.43;7.45;;;;;;;11.04;100.00;101616.50;6223199;22;19999;-91
2021/11/14 04:04:07;;;;;;;19.52;8.30;;;;;;;11.01;100.00;101611.44;6223029;22;20058;-91
2021/11/14 04:06:38;;;;;;;18.85;8.65;;;;;;;10.98;100.00;101592.91;6222974;22;20008;-93
2021/11/14 04:09:04;;;;;;;18.50;7.93;;;;;;;10.97;100.00;101608.22;6198238;22;20007;-91
2021/11/14 04:11:30;;;;;;;19.75;8.50;;;;;;;11.04;100.00;101607.59;6222540;22;20004;-91
2021/11/14 04:14:06;;;;;;;19.48;8.18;;;;;;;10.99;100.00;101608.91;6223169;22;20033;-90
2021/11/14 04:16:32;;;;;;;19.65;8.57;;;;;;;11.00;100.00;101610.59;6225060;22;20011;-90
2021/11/14 04:19:08;;;;;;;21.92;11.13;;;;;;;11.14;100.00;101629.84;6224872;22;20008;-91
2021/11/14 04:21:34;;;;;;;22.23;10.70;;;;;;;11.09;100.00;101618.75;6225411;22;20025;-92
2021/11/14 04:24:12;;;;;;;25.88;10.25;;;;;;;11.02;100.00;101602.38;6224621;22;20376;-92
2021/11/14 04:26:52;;;;;;;19.10;8.85;;;;;;;11.11;100.00;101622.09;6199124;22;20015;-93
2021/11/14 04:29:17;;;;;;;20.27;8.32;;;;;;;11.08;100.00;101617.88;6225200;22;20007;-90
2021/11/14 04:31:43;;;;;;;20.13;9.13;;;;;;;11.11;100.00;101625.63;6224964;22;20004;-93
2021/11/14 04:34:44;;;;;;;27.15;10.45;;;;;;;11.19;100.00;101635.59;6224617;22;20066;-90
2021/11/14 04:37:10;;;;;;;19.42;9.07;;;;;;;11.05;100.00;101606.59;6200150;22;20057;-94
2021/11/14 04:39:40;;;;;;;22.95;9.38;;;;;;;11.10;100.00;101620.41;6225172;22;20007;-93
2021/11/14 04:42:08;;;;;;;21.00;10.05;;;;;;;11.11;100.00;101624.78;6199861;22;20497;-90
2021/11/14 04:44:35;;;;;;;24.38;10.25;;;;;;;11.04;100.00;101608.44;6224281;22;20075;-95
2021/11/14 04:47:01;;;;;;;20.85;10.02;;;;;;;11.16;100.00;101635.91;6224773;22;20420;-91
2021/11/14 04:49:27;;;;;;;21.42;10.27;;;;;;;11.19;100.00;101640.97;6224981;22;20148;-90
2021/11/14 04:52:15;;;;;;;26.08;9.13;;;;;;;11.20;100.00;101642.69;6225118;22;20310;-89
2021/11/14 04:54:41;;;;;;;23.08;9.95;;;;;;;11.15;100.00;101634.25;6200443;22;20007;-89
2021/11/14 04:57:15;;;;;;;20.83;8.50;;;;;;;11.21;100.00;101645.22;6200108;22;20003;-91
2021/11/14 04:59:41;;;;;;;24.27;9.45;;;;;;;11.16;100.00;101636.75;6224639;22;20016;-93
2021/11/14 05:02:07;;;;;;;23.20;9.65;;;;;;;11.13;100.00;101630.84;6224582;22;20014;-90
2021/11/14 05:04:33;;;;;;;20.05;9.20;;;;;;;11.16;100.00;101635.91;6225009;22;20090;-89
2021/11/14 05:06:59;;;;;;;20.63;8.57;;;;;;;11.12;100.00;101629.19;6225260;22;20050;-90
2021/11/14 05:09:24;;;;;;;23.30;8.98;;;;;;;11.11;100.00;101627.47;6199690;22;20088;-93
2021/11/14 05:11:50;;;;;;;18.85;8.15;;;;;;;11.19;100.00;101633.78;6224770;22;20010;-90
2021/11/14 05:14:16;;;;;;;21.30;8.10;;;;;;;11.10;100.00;101620.41;6224700;22;20003;-89
2021/11/14 05:16:42;;;;;;;18.15;8.13;;;;;;;11.07;100.00;101616.19;6224338;22;20015;-93
2021/11/14 05:19:08;;;;;;;19.75;9.00;;;;;;;11.14;100.00;101629.84;6224379;22;20450;-93
2021/11/14 05:21:42;;;;;;;26.10;8.48;;;;;;;11.13;100.00;101622.78;6224474;22;20007;-90
2021/11/14 05:24:08;;;;;;;18.77;7.63;;;;;;;11.17;100.00;101633.09;6199678;22;20003;-93
2021/11/14 05:26:39;;;;;;;17.98;7.07;;;;;;;11.07;100.00;101610.81;6199282;22;20008;-90
2021/11/14 05:29:05;;;;;;;17.45;7.55;;;;;;;11.13;100.00;101622.78;6224702;22;20019;-92
2021/11/14 05:31:31;;;;;;;19.10;7.90;;;;;;;11.14;100.00;101636.09;6224251;22;20035;-92
2021/11/14 05:33:58;;;;;;;20.60;7.53;;;;;;;11.15;100.00;101640.47;6224304;22;20057;-90
2021/11/14 05:36:24;;;;;;;16.88;7.50;;;;;;;11.04;100.00;101619.22;6224205;22;20344;-92
2021/11/14 05:38:51;;;;;;;17.85;7.80;;;;;;;11.04;100.00;101623.75;6199463;22;20091;-89
2021/11/14 05:41:17;;;;;;;17.48;6.50;;;;;;;11.11;100.00;101636.38;6223004;22;20038;-92
2021/11/14 05:43:44;;;;;;;18.60;7.03;;;;;;;11.09;100.00;101629.50;6248571;22;20004;-91
2021/11/14 05:46:10;;;;;;;15.57;6.70;;;;;;;11.15;100.00;101639.63;6249195;22;20098;-91
2021/11/14 05:48:36;;;;;;;15.73;6.50;;;;;;;11.16;100.00;101644.00;6223507;22;20435;-91
2021/11/14 05:51:05;;;;;;;13.63;6.20;;;;;;;11.13;100.00;101649.69;6199519;22;20015;-89
2021/11/14 05:53:31;;;;;;;15.65;6.75;;;;;;;11.13;100.00;101637.09;6199537;22;20007;-91
2021/11/14 05:56:00;;;;;;;16.17;6.68;;;;;;;11.13;100.00;101641.63;6224281;22;20004;-92
2021/11/14 06:03:44;;;;;;;15.82;6.22;;;;;;;11.13;100.00;101649.69;6249670;22;20097;-95
2021/11/14 06:06:28;;;;;;;;;;;;;;;11.18;100.00;101660.84;6255141;22;20026;-92
2021/11/14 06:08:54;;;;;;;14.85;6.90;;;;;;;11.18;100.00;101667.06;6199345;22;20308;-89
2021/11/14 06:11:23;;;;;;;11.65;5.50;;;;;;;11.15;100.00;101667.38;6224099;22;20015;-92
2021/11/14 06:13:49;;;;;;;14.43;6.20;;;;;;;11.12;100.00;101653.41;6224253;22;20043;-92
2021/11/14 06:16:41;;;;;;;13.77;5.80;;;;;;;11.20;100.00;101658.84;6199707;22;20343;-93
2021/11/14 06:19:12;;;;;;;12.13;5.87;;;;;;;11.15;100.00;101653.94;6224788;22;20008;-91
2021/11/14 06:21:38;;;;;;;15.00;6.53;;;;;;;11.06;100.00;101638.75;6224301;22;20054;-90
2021/11/14 06:24:08;;;;;;;9.55;4.82;;;;;;;11.21;100.00;101668.59;6199359;22;20077;-91
2021/11/14 06:26:34;;;;;;;12.82;5.43;;;;;;;11.17;100.00;101661.84;6199154;22;20082;-93
2021/11/14 06:29:00;;;;;;;12.95;6.13;;;;;;;11.17;100.00;101667.25;6223757;22;20050;-93
2021/11/14 06:31:57;;;;;;;10.77;5.38;;;;;;;11.22;100.00;101683.75;6224084;22;20007;-90
2021/11/14 06:34:22;;;;;;;18.23;5.97;;;;;;;11.15;100.00;101671.94;6199536;22;20007;-93
2021/11/14 06:37:12;;;;;;;15.23;5.82;;;;;;;11.22;100.00;101686.47;6223668;22;20015;-90
2021/11/14 06:39:44;;;;;;;9.23;5.30;;;;;;;11.16;100.00;101679.84;6199456;22;20031;-90
2021/11/14 06:42:10;;;;;;;12.15;5.13;;;;;;;11.08;100.00;101666.31;6223836;22;20092;-90
2021/11/14 06:44:36;;;;;;;12.27;5.00;;;;;;;11.09;100.00;101675.25;6223937;22;20636;-89
2021/11/14 06:47:02;;;;;;;11.52;5.80;;;;;;;11.20;100.00;101701.91;6223859;22;20012;-91
2021/11/14 06:49:29;;;;;;;16.65;4.72;;;;;;;11.09;100.00;101676.09;6224230;22;20012;-91
2021/11/14 06:51:55;;;;;;;11.50;5.07;;;;;;;11.08;100.00;101685.16;6199182;22;20014;-91
2021/11/14 06:54:22;;;;;;;10.10;5.20;;;;;;;11.18;100.00;101702.06;6224004;22;20435;-91
2021/11/14 06:56:47;;;;;;;12.85;5.03;;;;;;;11.11;100.00;101695.59;6223635;22;20003;-89
2021/11/14 06:59:17;;;;;;;11.23;5.18;;;;;;;11.17;100.00;101704.94;6224282;22;20053;-90
2021/11/14 07:01:43;;;;;;;11.57;5.18;;;;;;;11.16;100.00;101705.91;6224038;22;20020;-89
2021/11/14 07:04:09;;;;;;;11.35;5.90;;;;;;;11.17;100.00;101713.00;6223563;22;20034;-91
2021/11/14 07:06:39;;;;;;;12.38;4.93;;;;;;;11.16;100.00;101703.22;6223814;22;20023;-91
2021/11/14 07:09:06;;;;;;;8.93;4.50;;;;;;;11.14;100.00;101697.13;6199030;22;20010;-90
2021/11/14 07:11:40;;;;;;;10.82;5.13;;;;;;;11.13;100.00;101695.47;6223768;22;20015;-91
2021/11/14 07:14:06;;;;;;;9.40;5.03;;;;;;;11.21;100.00;101709.81;6223971;22;20061;-91
2021/11/14 07:16:40;;;;;;;10.30;4.93;;;;;;;11.07;100.00;101691.56;6198534;22;20011;-90
2021/11/14 07:19:06;;;;;;;12.20;4.90;;;;;;;11.12;100.00;101704.53;6223682;22;20515;-90
2021/11/14 07:21:56;;;;;;;16.85;4.97;;;;;;;11.20;100.00;101718.91;6223609;22;20031;-91
2021/11/14 07:24:22;;;;;;;13.68;4.75;;;;;;;11.11;100.00;101711.75;6198820;22;20000;-91
2021/11/14 07:27:01;;;;;;;11.18;4.68;;;;;;;11.13;100.00;101715.13;6198975;22;20015;-92
2021/11/14 07:29:27;;;;;;;11.43;4.28;;;;;;;11.13;100.00;101720.53;6223098;22;20012;-90
2021/11/14 07:31:54;;;;;;;11.60;4.32;;;;;;;11.13;100.00;101725.91;6223430;22;20031;-90
2021/11/14 07:34:20;;;;;;;8.43;4.35;;;;;;;11.12;100.00;101721.53;6249018;22;20108;-90
2021/11/14 07:36:46;;;;;;;10.23;4.90;;;;;;;11.12;100.00;101729.63;6198573;22;20397;-91
2021/11/14 07:39:14;;;;;;;10.43;4.47;;;;;;;11.14;100.00;101740.22;6223402;22;20052;-90
2021/11/14 07:41:40;;;;;;;8.90;4.13;;;;;;;11.23;100.00;101756.28;6223267;22;20008;-89
2021/11/14 07:44:06;;;;;;;9.85;4.05;;;;;;;11.25;100.00;101760.69;6223140;22;20011;-91
2021/11/14 07:46:32;;;;;;;9.60;4.22;;;;;;;11.25;100.00;101758.81;6222332;22;20012;-90
2021/11/14 07:48:57;;;;;;;10.00;4.05;;;;;;;11.21;100.00;101750.19;6222162;22;20015;-92
2021/11/14 07:51:23;;;;;;;8.10;3.78;;;;;;;11.13;100.00;101733.97;6221881;22;20007;-93
2021/11/14 07:53:49;;;;;;;10.30;4.03;;;;;;;11.19;100.00;101754.91;6222609;22;20032;-89
2021/11/14 07:56:18;;;;;;;8.30;4.00;;;;;;;11.13;100.00;101739.38;6223161;22;20018;-90
2021/11/14 07:58:44;;;;;;;11.68;4.55;;;;;;;11.16;100.00;101743.59;6223381;22;20073;-91
2021/11/14 08:01:11;;;;;;;11.27;4.38;;;;;;;11.21;100.00;101752.06;6223433;22;20004;-91
2021/11/14 08:03:37;;;;;;;13.40;6.03;;;;;;;11.19;100.00;101757.59;6198792;22;20019;-89
2021/11/14 08:06:07;;;;;;;13.77;7.80;;;;;;;11.29;100.00;101765.56;6222984;22;20007;-91
2021/11/14 08:08:33;;;;;;;14.25;6.57;;;;;;;11.15;100.00;101755.38;6197581;22;20007;-89
2021/11/14 08:11:08;;;;;;;14.25;8.05;;;;;;;11.30;100.00;101774.50;6198571;22;20355;-90
2021/11/14 08:13:34;;;;;;;15.68;8.18;;;;;;;11.26;100.00;101770.44;6197637;22;20069;-89
2021/11/14 08:15:59;;;;;;;13.57;6.00;;;;;;;11.31;100.00;101782.44;6223212;22;20375;-90
2021/11/14 08:18:26;;;;;;;13.13;5.57;;;;;;;11.29;100.00;101773.66;6223278;22;20015;-91
2021/11/14 08:20:52;;;;;;;10.80;4.47;;;;;;;11.18;100.00;101752.38;6198566;22;20008;-89
2021/11/14 08:23:19;;;;;;;7.95;4.10;;;;;;;11.31;100.00;101778.91;6222584;22;20339;-92
2021/11/14 08:25:45;;;;;;;7.53;3.75;;;;;;;11.29;100.00;101775.50;6196099;22;20424;-90
2021/11/14 08:40:05;;;;;;;;;;;;;;;11.58;100.00;101778.75;6181005;23;20218;-93
2021/11/14 08:42:31;;;;;;;9.50;3.42;;;;;;;11.50;100.00;101753.63;6181643;23;19962;-93
2021/11/14 08:45:06;;;;;;;9.77;3.80;;;;;;;11.70;100.00;101786.59;6132617;23;20394;-93
2021/11/14 08:47:32;;;;;;;7.97;4.00;;;;;;;11.66;100.00;101767.19;6215686;22;20011;-91
2021/11/14 08:50:08;;;;;;;8.07;4.45;;;;;;;11.75;100.00;101777.03;6198103;22;20004;-92
2021/11/14 08:52:35;;;;;;;14.63;7.53;;;;;;;11.79;100.00;101778.41;6198306;22;20090;-90
2021/11/14 08:55:13;;;;;;;25.00;10.75;;;;;;;11.93;100.00;101787.78;6223261;22;20014;-92
2021/11/14 08:57:39;;;;;;;45.65;15.52;;;;;;;12.07;100.00;101789.06;6198146;22;20482;-94
2021/11/14 09:00:06;;;;;;;22.10;8.50;;;;;;;12.13;100.00;101787.56;6197166;22;20053;-92
2021/11/14 09:02:32;;;;;;;12.68;5.68;;;;;;;12.32;100.00;101790.84;6222534;22;20011;-91
2021/11/14 09:04:58;;;;;;;9.02;4.60;;;;;;;12.34;100.00;101770.97;6222430;22;20431;-90
2021/11/14 09:07:27;;;;;;;19.77;6.93;;;;;;;12.53;100.00;101781.47;6222242;22;20436;-89
2021/11/14 09:09:53;;;;;;;33.67;10.93;;;;;;;12.56;100.00;101783.00;6222204;22;20004;-90
2021/11/14 09:12:19;;;;;;;16.15;5.60;;;;;;;12.58;100.00;101792.63;6223168;22;20268;-89
2021/11/14 09:14:44;;;;;;;10.55;5.28;;;;;;;12.63;100.00;101797.53;6222570;22;20004;-90
2021/11/14 09:17:10;;;;;;;8.07;3.72;;;;;;;12.52;100.00;101780.66;6221923;22;20388;-91
2021/11/14 09:19:36;;;;;;;8.00;4.05;;;;;;;12.67;100.00;101807.81;6247653;22;20042;-92
2021/11/14 09:22:02;;;;;;;5.47;2.90;;;;;;;12.66;100.00;101805.31;6222255;22;20014;-90
2021/11/14 09:24:28;;;;;;;8.07;3.72;;;;;;;12.66;100.00;101806.13;6222667;22;20324;-90
2021/11/14 09:26:54;;;;;;;8.50;3.80;;;;;;;12.59;100.00;101799.69;6221950;22;20066;-92
2021/11/14 09:29:19;;;;;;;8.68;4.57;;;;;;;12.62;100.00;101812.03;6222475;22;20018;-92
2021/11/14 09:31:45;;;;;;;9.38;5.05;;;;;;;12.68;100.00;101806.84;6222606;22;20364;-90
2021/11/14 09:34:11;;;;;;;7.88;4.20;;;;;;;12.53;100.00;101794.97;6221698;22;20004;-91
2021/11/14 09:36:38;;;;;;;8.10;3.33;;;;;;;12.61;100.00;101807.66;6197805;22;20502;-90
2021/11/14 09:39:09;;;;;;;7.70;3.90;;;;;;;12.68;100.00;101817.63;6222497;22;20086;-89
2021/11/14 09:41:40;;;;;;;17.25;7.07;;;;;;;12.59;100.00;101797.00;6222703;22;20053;-91
2021/11/14 09:44:06;;;;;;;11.45;6.82;;;;;;;12.74;100.00;101824.22;6197911;22;20007;-90
2021/11/14 09:46:32;;;;;;;15.13;7.55;;;;;;;12.82;100.00;101835.03;6223637;22;20416;-90
2021/11/14 09:48:58;;;;;;;18.10;8.57;;;;;;;12.80;100.00;101817.31;6222795;22;20716;-89
2021/11/14 09:51:24;;;;;;;31.55;17.42;;;;;;;12.77;100.00;101800.44;6223574;22;20014;-90
2021/11/14 09:53:53;;;;;;;23.38;13.10;;;;;;;12.83;100.00;101806.19;6223688;22;20012;-90
2021/11/14 09:56:19;;;;;;;35.92;20.48;;;;;;;12.87;100.00;101812.97;6223370;22;20007;-93
2021/11/14 09:58:51;;;;;;;66.00;42.67;;;;;;;12.98;100.00;101823.44;6224680;22;20364;-95
2021/11/14 10:01:18;;;;;;;20.00;13.05;;;;;;;13.13;100.00;101834.44;6224133;22;20039;-93
2021/11/14 10:03:46;;;;;;;12.82;4.53;;;;;;;13.15;100.00;101833.25;6200155;22;20003;-93
2021/11/14 10:06:14;;;;;;;6.25;3.35;;;;;;;13.14;100.00;101825.31;6200090;22;20019;-90
2021/11/14 10:08:44;;;;;;;23.35;8.05;;;;;;;13.09;100.00;101825.81;6224645;22;20000;-93
2021/11/14 10:11:10;;;;;;;21.83;7.60;;;;;;;13.10;100.00;101822.13;6200636;22;20107;-91
2021/11/14 10:14:05;;;;;;;14.95;5.53;;;;;;;13.25;100.00;101849.28;6224374;22;20035;-92
2021/11/14 10:16:33;;;;;;;22.42;6.63;;;;;;;13.13;100.00;101812.84;6225793;22;20490;-93
2021/11/14 10:19:13;;;;;;;11.82;4.20;;;;;;;13.27;100.00;101817.59;6225523;22;20007;-89
2021/11/14 10:21:39;;;;;;;9.50;3.22;;;;;;;13.28;100.00;101813.88;6215659;22;20015;-91
2021/11/14 10:24:10;;;;;;;9.18;4.00;;;;;;;13.38;100.00;101821.81;6207699;23;20138;-91
2021/11/14 10:26:39;;;;;;;7.05;2.97;;;;;;;13.64;100.00;101841.41;6195117;22;20563;-93
2021/11/14 10:29:10;;;;;;;10.63;4.00;;;;;;;13.63;100.00;101811.88;6207856;23;20012;-94
2021/11/14 10:31:48;;;;;;;8.48;2.80;;;;;;;13.83;100.00;101817.75;6194446;22;20011;-94
2021/11/14 10:34:18;;;;;;;6.35;2.08;;;;;;;13.89;100.00;101821.63;6201655;22;20008;-90
2021/11/14 10:36:44;;;;;;;3.72;2.00;;;;;;;14.03;100.00;101816.38;6195706;22;20066;-95
2021/11/14 10:39:12;;;;;;;5.18;2.08;;;;;;;14.09;100.00;101812.13;6222982;22;20057;-94
2021/11/14 10:41:44;;;;;;;5.38;1.77;;;;;;;14.26;100.00;101821.00;6199095;22;20000;-93
2021/11/14 10:44:18;;;;;;;8.05;3.65;;;;;;;14.46;100.00;101838.53;6207912;23;20328;-94
2021/11/14 10:46:44;;;;;;;3.17;1.77;;;;;;;14.57;100.00;101837.34;6195818;22;20004;-92
2021/11/14 10:49:35;;;;;;;5.13;2.30;;;;;;;14.61;100.00;101837.84;6199191;22;20000;-93
2021/11/14 10:52:01;;;;;;;3.67;1.98;;;;;;;14.57;100.00;101814.84;6224414;22;20374;-93
2021/11/14 10:54:50;;;;;;;5.20;2.63;;;;;;;14.58;100.00;101817.41;6224466;22;20031;-93
2021/11/14 10:57:16;;;;;;;6.55;3.45;;;;;;;14.64;100.00;101826.66;6224457;22;20158;-94
2021/11/14 11:00:00;;;;;;;7.13;3.17;;;;;;;14.70;100.00;101845.75;6224014;22;20031;-93
2021/11/14 11:02:27;;;;;;;7.25;2.92;;;;;;;14.62;100.00;101834.94;6199267;22;20011;-92
2021/11/14 11:04:54;;;;;;;6.35;3.13;;;;;;;14.57;100.00;101837.34;6224043;22;20004;-91
2021/11/14 11:08:11;;;;;;;6.68;3.28;;;;;;;14.71;100.00;101852.00;6223914;22;20027;-92
2021/11/14 11:10:45;;;;;;;7.47;2.80;;;;;;;14.57;100.00;101825.69;6225541;22;20014;-91
2021/11/14 11:13:40;;;;;;;5.65;3.05;;;;;;;14.64;100.00;101830.22;6201406;22;20011;-93
2021/11/14 11:16:20;;;;;;;8.85;3.22;;;;;;;14.66;100.00;101836.31;6225912;22;20011;-92
2021/11/14 11:19:10;;;;;;;6.72;2.97;;;;;;;14.56;100.00;101821.28;6225693;22;20014;-95
2021/11/14 11:21:49;;;;;;;7.38;2.90;;;;;;;14.84;100.00;101817.06;6200633;22;20382;-94
2021/11/14 11:24:23;;;;;;;8.23;3.70;;;;;;;15.06;100.00;101822.72;6201293;22;20008;-91
2021/11/14 11:27:20;;;;;;;8.68;3.00;;;;;;;15.24;100.00;101823.25;6223934;22;20012;-93
2021/11/14 11:29:47;;;;;;;8.60;3.05;;;;;;;15.53;99.29;101816.22;6190372;22;20065;-95
2021/11/14 11:32:15;;;;;;;6.60;2.35;;;;;;;15.58;98.49;101808.41;6225916;22;20007;-91
2021/11/14 11:34:42;;;;;;;4.93;2.10;;;;;;;15.72;98.03;101831.22;6199196;22;20008;-92
2021/11/14 11:37:09;;;;;;;4.47;2.10;;;;;;;15.48;97.71;101811.38;6223125;22;20083;-96